Météo Nord-Pas-de-Calais   La météo au plus près de chez vous

Station météorologique

Observations météo à Leran (09161)

09161003 391 m Dernier relevé à 15:24
29.6°C
Humidité 39 % Vent 4.7 km/h

Journée consultée

Mardi 1 Septembre 2026

Synthèse de la journée

Périodes de référence en UTC

Température maximale

29.7°C

à 15:00

06h 06h

Température minimale

11.3°C

à 08:00

18h 18h

Rafale maximale

19 km/h

à 13:12

00h 00h

Précipitations

0 mm

Cumul quotidien

06h 06h

Graphiques de la journée

Heure locale Réduire

Données détaillées

Relevés météo

Pas de 6 minutes Afficher les relevés infra-horaires
Relevés météo détaillés à Leran pour le Mardi 1 Septembre 2026
Heure Température °C Point de rosée °C Humidité % Vent moyen (raf.), km/h Précipitations mm
15:24 29.6 °C 13.4 °C 37 % 7 km/h (14 km/h) 0 mm0 mm
15:18 29.5 °C 13.3 °C 37 % 7 km/h (15 km/h) 0 mm0 mm
15:12 29.4 °C 13.6 °C 38 % 6 km/h (15 km/h) 0 mm0 mm
15:06 29.3 °C 13.5 °C 38 % 8 km/h (19 km/h) 0 mm0 mm
15:00 29.1 °C 13.3 °C 38 % 7 km/h (19 km/h) 0 mm0 mm
14:54 29.6 °C 13.8 °C 38 % 6 km/h (17 km/h) 0 mm0 mm
14:48 29.3 °C 13.5 °C 38 % 6 km/h (17 km/h) 0 mm0 mm
14:42 29.1 °C 13.7 °C 39 % 6 km/h (16 km/h) 0 mm0 mm
14:36 28.6 °C 13.3 °C 39 % 8 km/h (16 km/h) 0 mm0 mm
14:30 28.5 °C 13.6 °C 40 % 7 km/h (14 km/h) 0 mm0 mm
14:24 28.7 °C 13.4 °C 39 % 5 km/h (14 km/h) 0 mm0 mm
14:18 28.3 °C 13.4 °C 40 % 5 km/h (13 km/h) 0 mm0 mm
14:12 27.9 °C 13 °C 40 % 8 km/h (17 km/h) 0 mm0 mm
14:06 28.2 °C 13.7 °C 41 % 6 km/h (16 km/h) 0 mm0 mm
14:00 27.9 °C 13.4 °C 41 % 6 km/h (13 km/h) 0 mm0 mm
13:54 27.8 °C 13.7 °C 42 % 4 km/h (13 km/h) 0 mm0 mm
13:48 27.7 °C 13.2 °C 41 % 5 km/h (12 km/h) 0 mm0 mm
13:42 27.4 °C 13.3 °C 42 % 6 km/h (12 km/h) 0 mm0 mm
13:36 27 °C 13 °C 42 % 6 km/h (13 km/h) 0 mm0 mm
13:30 26.9 °C 13.3 °C 43 % 8 km/h (16 km/h) 0 mm0 mm
13:24 27 °C 13.4 °C 43 % 7 km/h (16 km/h) 0 mm0 mm
13:18 27 °C 13.4 °C 43 % 7 km/h (19 km/h) 0 mm0 mm
13:12 26.7 °C 13.4 °C 44 % 8 km/h (19 km/h) 0 mm0 mm
13:06 26.7 °C 13.1 °C 43 % 6 km/h (15 km/h) 0 mm0 mm
13:00 26.7 °C 13.4 °C 44 % 7 km/h (16 km/h) 0 mm0 mm
12:54 26.4 °C 13.5 °C 45 % 7 km/h (16 km/h) 0 mm0 mm
12:48 26.4 °C 13.8 °C 46 % 8 km/h (16 km/h) 0 mm0 mm
12:42 26.3 °C 13.4 °C 45 % 7 km/h (16 km/h) 0 mm0 mm
12:36 26.7 °C 13.4 °C 44 % 4 km/h (10 km/h) 0 mm0 mm
12:30 26.3 °C 13.4 °C 45 % 4 km/h (10 km/h) 0 mm0 mm
12:24 26 °C 13.1 °C 45 % 4 km/h (10 km/h) 0 mm0 mm
12:18 25.8 °C 13.3 °C 46 % 3 km/h (8 km/h) 0 mm0 mm
12:12 25.6 °C 13.4 °C 47 % 4 km/h (11 km/h) 0 mm0 mm
12:06 25.4 °C 13.6 °C 48 % 6 km/h (14 km/h) 0 mm0 mm
12:00 25.3 °C 13.5 °C 48 % 6 km/h (14 km/h) 0 mm0 mm
11:54 25.4 °C 13.6 °C 48 % 6 km/h (10 km/h) 0 mm0 mm
11:48 25.5 °C 13.7 °C 48 % 4 km/h (9 km/h) 0 mm0 mm
11:42 25.6 °C 13.4 °C 47 % 3 km/h (6 km/h) 0 mm0 mm
11:36 25 °C 13.2 °C 48 % 4 km/h (10 km/h) 0 mm0 mm
11:30 24.7 °C 12.9 °C 48 % 6 km/h (10 km/h) 0 mm0 mm
11:24 24.6 °C 13.2 °C 49 % 5 km/h (10 km/h) 0 mm0 mm
11:18 24.9 °C 13.8 °C 50 % 4 km/h (9 km/h) 0 mm0 mm
11:12 24.4 °C 13.6 °C 51 % 5 km/h (11 km/h) 0 mm0 mm
11:06 24.1 °C 13.3 °C 51 % 5 km/h (10 km/h) 0 mm0 mm
11:00 24.1 °C 13.3 °C 51 % 5 km/h (9 km/h) 0 mm0 mm
10:54 24.1 °C 13.6 °C 52 % 4 km/h (9 km/h) 0 mm0 mm
10:48 23.3 °C 13.7 °C 55 % 3 km/h (6 km/h) 0 mm0 mm
10:42 22.9 °C 13.7 °C 56 % 4 km/h (6 km/h) 0 mm0 mm
10:36 22.4 °C 13.5 °C 57 % 3 km/h (5 km/h) 0 mm0 mm
10:30 22.9 °C 13.9 °C 57 % 0 km/h (5 km/h) 0 mm0 mm
10:24 22.7 °C 14 °C 58 % 2 km/h (8 km/h) 0 mm0 mm
10:18 22.2 °C 13.8 °C 59 % 3 km/h (8 km/h) 0 mm0 mm
10:12 21.9 °C 13.8 °C 60 % 4 km/h (8 km/h) 0 mm0 mm
10:06 21.6 °C 14 °C 62 % 3 km/h (8 km/h) 0 mm0 mm
10:00 21.3 °C 14.2 °C 64 % 2 km/h (6 km/h) 0 mm0 mm
09:54 20.6 °C 14.3 °C 67 % 2 km/h (5 km/h) 0 mm0 mm
09:48 19.9 °C 14 °C 69 % 2 km/h (5 km/h) 0 mm0 mm
09:42 19.6 °C 14.4 °C 72 % 2 km/h (5 km/h) 0 mm0 mm
09:36 19.4 °C 14.9 °C 75 % 0 km/h (4 km/h) 0 mm0 mm
09:30 19 °C 14.7 °C 76 % 0 km/h (3 km/h) 0 mm0 mm
09:24 18.1 °C 14.8 °C 81 % 0 km/h (4 km/h) 0 mm0 mm
09:18 17.4 °C 14.9 °C 85 % 2 km/h (4 km/h) 0 mm0 mm
09:12 16.8 °C 14.4 °C 86 % 2 km/h (4 km/h) 0 mm0 mm
09:06 16.4 °C 14.6 °C 89 % 0 km/h (4 km/h) 0 mm0 mm
09:00 16 °C 14.5 °C 91 % 2 km/h (4 km/h) 0 mm0 mm
08:54 15.8 °C 14.3 °C 91 % 0 km/h (4 km/h) 0 mm0 mm
08:48 15.7 °C 14.6 °C 93 % 0 km/h (3 km/h) 0 mm0 mm
08:42 15.4 °C 14.3 °C 93 % 0 km/h (3 km/h) 0 mm0 mm
08:36 14.8 °C 14.2 °C 96 % 0 km/h (2 km/h) 0 mm0 mm
08:30 14.2 °C 13.6 °C 96 % 0 km/h (2 km/h) 0 mm0 mm
08:24 13.6 °C 13 °C 96 % 0 km/h (3 km/h) 0 mm0 mm
08:18 13.2 °C 12.6 °C 96 % 2 km/h (3 km/h) 0 mm0 mm
08:12 13 °C 12.4 °C 96 % 2 km/h (3 km/h) 0 mm0 mm
08:06 12.7 °C 12.1 °C 96 % 2 km/h (3 km/h) 0 mm0 mm
08:00 12.5 °C 12 °C 97 % 0 km/h (3 km/h) 0 mm0 mm
07:54 12.2 °C 11.7 °C 97 % 0 km/h (2 km/h) 0 mm0 mm
07:48 11.8 °C 11.2 °C 96 % 0 km/h (3 km/h) 0 mm0 mm
07:42 11.7 °C 11.1 °C 96 % 0 km/h (3 km/h) 0 mm0 mm
07:36 11.6 °C 11 °C 96 % 2 km/h (4 km/h) 0 mm0 mm
07:30 11.6 °C 11.1 °C 97 % 3 km/h (4 km/h) 0 mm0 mm
07:24 11.6 °C 11.1 °C 97 % 0 km/h (4 km/h) 0 mm0 mm
07:18 11.4 °C 10.8 °C 96 % 0 km/h (4 km/h) 0 mm0 mm
07:12 11.4 °C 10.8 °C 96 % 3 km/h (4 km/h) 0 mm0 mm
07:06 11.5 °C 10.9 °C 96 % 2 km/h (3 km/h) 0 mm0 mm
07:00 11.4 °C 10.8 °C 96 % 2 km/h (3 km/h) 0 mm0 mm
06:54 11.5 °C 10.9 °C 96 % 2 km/h (3 km/h) 0 mm0 mm
06:48 11.5 °C 10.9 °C 96 % 0 km/h (3 km/h) 0 mm0 mm
06:42 11.5 °C 10.9 °C 96 % 2 km/h (3 km/h) 0 mm0 mm
06:36 11.5 °C 10.9 °C 96 % 0 km/h (3 km/h) 0 mm0 mm
06:30 11.8 °C 11.3 °C 97 % 0 km/h (2 km/h) 0 mm0 mm
06:24 11.9 °C 11.4 °C 97 % 0 km/h (2 km/h) 0 mm0 mm
06:18 11.8 °C 11.3 °C 97 % 0 km/h (2 km/h) 0 mm0 mm
06:12 11.7 °C 11.1 °C 96 % 0 km/h (2 km/h) 0 mm0 mm
06:06 11.6 °C 11 °C 96 % 0 km/h (3 km/h) 0 mm0 mm
06:00 11.6 °C 11 °C 96 % 0 km/h (3 km/h) 0 mm0 mm
05:54 11.9 °C 11.3 °C 96 % 0 km/h (3 km/h) 0 mm0 mm
05:48 11.7 °C 11.1 °C 96 % 2 km/h (4 km/h) 0 mm0 mm
05:42 11.7 °C 11.1 °C 96 % 3 km/h (4 km/h) 0 mm0 mm
05:36 11.7 °C 10.9 °C 95 % 0 km/h (3 km/h) 0 mm0 mm
05:30 11.8 °C 11.2 °C 96 % 0 km/h (3 km/h) 0 mm0 mm
05:24 11.9 °C 11.1 °C 95 % 0 km/h (2 km/h) 0 mm0 mm
05:18 12 °C 11.4 °C 96 % 0 km/h (0 km/h) 0 mm0 mm
05:12 12.1 °C 11.5 °C 96 % 0 km/h (0 km/h) 0 mm0 mm
05:06 12.2 °C 11.6 °C 96 % 0 km/h (6 km/h) 0 mm0 mm
05:00 12 °C 11.2 °C 95 % 4 km/h (7 km/h) 0 mm0 mm
04:54 12.1 °C 11.5 °C 96 % 3 km/h (6 km/h) 0 mm0 mm
04:48 12.1 °C 11.5 °C 96 % 0 km/h (3 km/h) 0 mm0 mm
04:42 12.2 °C 11.6 °C 96 % 0 km/h (3 km/h) 0 mm0 mm
04:36 12.3 °C 11.7 °C 96 % 0 km/h (2 km/h) 0 mm0 mm
04:30 12.3 °C 11.7 °C 96 % 0 km/h (2 km/h) 0 mm0 mm
04:24 12.2 °C 11.4 °C 95 % 0 km/h (2 km/h) 0 mm0 mm
04:18 12.1 °C 11.2 °C 94 % 0 km/h (2 km/h) 0 mm0 mm
04:12 12.4 °C 11.6 °C 95 % 0 km/h (2 km/h) 0 mm0 mm
04:06 12.3 °C 11.5 °C 95 % 2 km/h (3 km/h) 0 mm0 mm
04:00 12.3 °C 11.5 °C 95 % 2 km/h (3 km/h) 0 mm0 mm
03:54 12.4 °C 11.5 °C 94 % 0 km/h (3 km/h) 0 mm0 mm
03:48 12.5 °C 11.7 °C 95 % 0 km/h (0 km/h) 0 mm0 mm
03:42 12.6 °C 11.8 °C 95 % 0 km/h (2 km/h) 0 mm0 mm
03:36 12.6 °C 11.8 °C 95 % 0 km/h (2 km/h) 0 mm0 mm
03:30 12.7 °C 11.9 °C 95 % 0 km/h (0 km/h) 0 mm0 mm
03:24 12.6 °C 11.7 °C 94 % 0 km/h (0 km/h) 0 mm0 mm
03:18 12.6 °C 11.7 °C 94 % 0 km/h (0 km/h) 0 mm0 mm
03:12 12.6 °C 11.5 °C 93 % 0 km/h (3 km/h) 0 mm0 mm
03:06 12.7 °C 11.6 °C 93 % 3 km/h (4 km/h) 0 mm0 mm
03:00 12.8 °C 11.7 °C 93 % 3 km/h (4 km/h) 0 mm0 mm
02:54 12.9 °C 12 °C 94 % 3 km/h (4 km/h) 0 mm0 mm
02:48 13 °C 11.9 °C 93 % 3 km/h (4 km/h) 0 mm0 mm
02:42 13 °C 12.1 °C 94 % 2 km/h (4 km/h) 0 mm0 mm
02:36 13 °C 12.1 °C 94 % 2 km/h (4 km/h) 0 mm0 mm
02:30 13 °C 11.9 °C 93 % 3 km/h (4 km/h) 0 mm0 mm
02:24 13.1 °C 12 °C 93 % 3 km/h (4 km/h) 0 mm0 mm
02:18 13.1 °C 12 °C 93 % 2 km/h (4 km/h) 0 mm0 mm
02:12 13.1 °C 12 °C 93 % 2 km/h (3 km/h) 0 mm0 mm
02:06 13.3 °C 12.2 °C 93 % 0 km/h (3 km/h) 0 mm0 mm
02:00 13.4 °C 12.3 °C 93 % 0 km/h (0 km/h) 0 mm0 mm
01:54 13.5 °C 12.4 °C 93 % 0 km/h (2 km/h) 0 mm0 mm
01:48 13.4 °C 12.3 °C 93 % 0 km/h (3 km/h) 0 mm0 mm
01:42 13.4 °C 12.3 °C 93 % 2 km/h (3 km/h) 0 mm0 mm
01:36 13.3 °C 11.9 °C 91 % 2 km/h (3 km/h) 0 mm0 mm
01:30 13.5 °C 12.2 °C 92 % 2 km/h (3 km/h) 0 mm0 mm
01:24 13.6 °C 12.3 °C 92 % 0 km/h (2 km/h) 0 mm0 mm
01:18 13.5 °C 12.1 °C 91 % 2 km/h (4 km/h) 0 mm0 mm
01:12 13.6 °C 12.2 °C 91 % 3 km/h (4 km/h) 0 mm0 mm
01:06 13.7 °C 12.4 °C 92 % 2 km/h (4 km/h) 0 mm0 mm
01:00 13.7 °C 12.3 °C 91 % 0 km/h (3 km/h) 0 mm0 mm
00:54 13.8 °C 12.4 °C 91 % 0 km/h (2 km/h) 0 mm0 mm
00:48 14 °C 12.9 °C 93 % 0 km/h (2 km/h) 0 mm0 mm
00:42 14.1 °C 12.8 °C 92 % 0 km/h (3 km/h) 0 mm0 mm
00:36 14.2 °C 12.9 °C 92 % 0 km/h (3 km/h) 0 mm0 mm
00:30 14.3 °C 13 °C 92 % 2 km/h (3 km/h) 0 mm0 mm
00:24 14.4 °C 13.1 °C 92 % 2 km/h (3 km/h) 0 mm0 mm
00:18 14.5 °C 13.2 °C 92 % 3 km/h (5 km/h) 0 mm0 mm
00:12 14.1 °C 12.3 °C 89 % 4 km/h (5 km/h) 0 mm0 mm
00:06 14.2 °C 12.4 °C 89 % 3 km/h (5 km/h) 0 mm0 mm
00:00 14.2 °C 12.1 °C 87 % 2 km/h (4 km/h) 0 mm0 mm

Données via Météo-France

Relevés météo à Leran

Cette page rassemble les observations de la station de Leran : température, humidité, vent, précipitations et pression atmosphérique. Les graphiques facilitent le suivi de la journée, tandis que le tableau donne accès aux mesures horaires et infra-horaires disponibles.

Pour replacer ces mesures dans leur contexte, consultez la climatologie de Leran ainsi que ses normales et records. Retrouvez aussi la carte des observations météo en temps réel.